sensor_id;sensor_type;location;lat;lon;timestamp;P1;durP1;ratioP1;P2;durP2;ratioP2
54683;SDS011;40582;53.100;6.686;2023-03-23T00:02:25;17.50;;;14.02;;
54683;SDS011;40582;53.100;6.686;2023-03-23T00:04:57;18.48;;;14.75;;
54683;SDS011;40582;53.100;6.686;2023-03-23T00:07:25;20.63;;;13.50;;
54683;SDS011;40582;53.100;6.686;2023-03-23T00:09:53;16.95;;;13.25;;
54683;SDS011;40582;53.100;6.686;2023-03-23T00:12:24;24.55;;;14.43;;
54683;SDS011;40582;53.100;6.686;2023-03-23T00:15:02;22.98;;;13.25;;
54683;SDS011;40582;53.100;6.686;2023-03-23T00:17:30;16.60;;;11.60;;
54683;SDS011;40582;53.100;6.686;2023-03-23T00:20:01;16.88;;;11.95;;
54683;SDS011;40582;53.100;6.686;2023-03-23T00:22:30;20.80;;;12.30;;
54683;SDS011;40582;53.100;6.686;2023-03-23T00:24:56;19.92;;;11.80;;
54683;SDS011;40582;53.100;6.686;2023-03-23T00:27:22;18.50;;;11.93;;
54683;SDS011;40582;53.100;6.686;2023-03-23T00:29:48;15.38;;;10.93;;
54683;SDS011;40582;53.100;6.686;2023-03-23T00:32:17;18.30;;;11.32;;
54683;SDS011;40582;53.100;6.686;2023-03-23T00:34:46;21.52;;;12.20;;
54683;SDS011;40582;53.100;6.686;2023-03-23T00:37:13;22.38;;;12.13;;
54683;SDS011;40582;53.100;6.686;2023-03-23T00:39:41;21.15;;;13.07;;
54683;SDS011;40582;53.100;6.686;2023-03-23T00:42:11;19.00;;;12.07;;
54683;SDS011;40582;53.100;6.686;2023-03-23T00:44:40;19.85;;;11.98;;
54683;SDS011;40582;53.100;6.686;2023-03-23T00:47:06;20.70;;;11.45;;
54683;SDS011;40582;53.100;6.686;2023-03-23T00:49:33;17.58;;;11.40;;
54683;SDS011;40582;53.100;6.686;2023-03-23T00:52:00;18.45;;;11.25;;
54683;SDS011;40582;53.100;6.686;2023-03-23T00:54:26;18.10;;;11.15;;
54683;SDS011;40582;53.100;6.686;2023-03-23T00:56:53;17.88;;;12.02;;
54683;SDS011;40582;53.100;6.686;2023-03-23T00:59:19;21.98;;;12.05;;
54683;SDS011;40582;53.100;6.686;2023-03-23T01:01:46;21.63;;;12.52;;
54683;SDS011;40582;53.100;6.686;2023-03-23T01:04:12;25.88;;;13.25;;
54683;SDS011;40582;53.100;6.686;2023-03-23T01:06:40;32.60;;;14.68;;
54683;SDS011;40582;53.100;6.686;2023-03-23T01:09:08;24.83;;;10.40;;
54683;SDS011;40582;53.100;6.686;2023-03-23T01:11:36;10.20;;;7.32;;
54683;SDS011;40582;53.100;6.686;2023-03-23T01:14:03;15.98;;;8.55;;
54683;SDS011;40582;53.100;6.686;2023-03-23T01:16:29;11.70;;;8.13;;
54683;SDS011;40582;53.100;6.686;2023-03-23T01:18:55;11.70;;;7.80;;
54683;SDS011;40582;53.100;6.686;2023-03-23T01:21:20;13.15;;;7.75;;
54683;SDS011;40582;53.100;6.686;2023-03-23T01:23:47;14.05;;;7.78;;
54683;SDS011;40582;53.100;6.686;2023-03-23T01:26:14;15.32;;;9.43;;
54683;SDS011;40582;53.100;6.686;2023-03-23T01:28:42;18.35;;;9.73;;
54683;SDS011;40582;53.100;6.686;2023-03-23T01:31:12;14.25;;;9.45;;
54683;SDS011;40582;53.100;6.686;2023-03-23T01:33:43;15.20;;;9.60;;
54683;SDS011;40582;53.100;6.686;2023-03-23T01:36:13;14.93;;;9.32;;
54683;SDS011;40582;53.100;6.686;2023-03-23T01:38:41;22.65;;;9.85;;
54683;SDS011;40582;53.100;6.686;2023-03-23T01:41:08;17.42;;;9.48;;
54683;SDS011;40582;53.100;6.686;2023-03-23T01:43:34;15.30;;;9.35;;
54683;SDS011;40582;53.100;6.686;2023-03-23T01:45:59;14.27;;;9.13;;
54683;SDS011;40582;53.100;6.686;2023-03-23T01:48:35;19.23;;;8.80;;
54683;SDS011;40582;53.100;6.686;2023-03-23T01:53:45;13.43;;;7.45;;
54683;SDS011;40582;53.100;6.686;2023-03-23T01:56:20;12.98;;;6.95;;
54683;SDS011;40582;53.100;6.686;2023-03-23T01:58:52;16.73;;;8.05;;
54683;SDS011;40582;53.100;6.686;2023-03-23T02:01:18;15.80;;;6.63;;
54683;SDS011;40582;53.100;6.686;2023-03-23T02:03:46;20.60;;;7.50;;
54683;SDS011;40582;53.100;6.686;2023-03-23T02:06:13;16.33;;;6.75;;
54683;SDS011;40582;53.100;6.686;2023-03-23T02:08:40;11.82;;;5.97;;
54683;SDS011;40582;53.100;6.686;2023-03-23T02:11:18;17.60;;;7.00;;
54683;SDS011;40582;53.100;6.686;2023-03-23T02:13:46;13.07;;;6.20;;
54683;SDS011;40582;53.100;6.686;2023-03-23T02:18:47;9.77;;;6.30;;
54683;SDS011;40582;53.100;6.686;2023-03-23T02:24:46;10.20;;;5.82;;
54683;SDS011;40582;53.100;6.686;2023-03-23T02:35:46;13.40;;;5.50;;
54683;SDS011;40582;53.100;6.686;2023-03-23T02:38:23;10.60;;;5.38;;
54683;SDS011;40582;53.100;6.686;2023-03-23T02:40:58;11.75;;;5.35;;
54683;SDS011;40582;53.100;6.686;2023-03-23T02:43:27;10.50;;;5.38;;
54683;SDS011;40582;53.100;6.686;2023-03-23T02:45:58;15.63;;;5.63;;
54683;SDS011;40582;53.100;6.686;2023-03-23T02:48:27;10.77;;;4.90;;
54683;SDS011;40582;53.100;6.686;2023-03-23T02:50:55;11.52;;;5.43;;
54683;SDS011;40582;53.100;6.686;2023-03-23T02:53:23;9.50;;;4.63;;
54683;SDS011;40582;53.100;6.686;2023-03-23T02:55:50;12.77;;;5.43;;
54683;SDS011;40582;53.100;6.686;2023-03-23T02:58:18;15.65;;;5.32;;
54683;SDS011;40582;53.100;6.686;2023-03-23T03:00:44;15.38;;;5.45;;
54683;SDS011;40582;53.100;6.686;2023-03-23T03:03:15;13.38;;;4.93;;
54683;SDS011;40582;53.100;6.686;2023-03-23T03:05:49;9.63;;;5.35;;
54683;SDS011;40582;53.100;6.686;2023-03-23T03:08:51;12.02;;;5.35;;
54683;SDS011;40582;53.100;6.686;2023-03-23T03:11:25;9.10;;;4.60;;
54683;SDS011;40582;53.100;6.686;2023-03-23T03:19:37;9.48;;;4.85;;
54683;SDS011;40582;53.100;6.686;2023-03-23T03:22:05;9.68;;;4.55;;
54683;SDS011;40582;53.100;6.686;2023-03-23T03:24:33;10.35;;;4.50;;
54683;SDS011;40582;53.100;6.686;2023-03-23T03:27:02;15.57;;;4.88;;
54683;SDS011;40582;53.100;6.686;2023-03-23T03:29:35;12.00;;;4.68;;
54683;SDS011;40582;53.100;6.686;2023-03-23T03:32:07;8.75;;;4.20;;
54683;SDS011;40582;53.100;6.686;2023-03-23T03:34:37;11.00;;;4.20;;
54683;SDS011;40582;53.100;6.686;2023-03-23T03:37:04;9.25;;;4.20;;
54683;SDS011;40582;53.100;6.686;2023-03-23T03:39:30;9.65;;;3.63;;
54683;SDS011;40582;53.100;6.686;2023-03-23T03:41:59;10.50;;;3.80;;
54683;SDS011;40582;53.100;6.686;2023-03-23T03:44:25;7.13;;;3.83;;
54683;SDS011;40582;53.100;6.686;2023-03-23T03:46:51;11.35;;;4.45;;
54683;SDS011;40582;53.100;6.686;2023-03-23T03:49:17;13.35;;;5.07;;
54683;SDS011;40582;53.100;6.686;2023-03-23T03:51:42;14.20;;;5.32;;
54683;SDS011;40582;53.100;6.686;2023-03-23T03:54:08;10.30;;;4.93;;
54683;SDS011;40582;53.100;6.686;2023-03-23T03:56:35;8.77;;;4.95;;
54683;SDS011;40582;53.100;6.686;2023-03-23T03:59:05;17.23;;;5.60;;
54683;SDS011;40582;53.100;6.686;2023-03-23T04:01:35;10.55;;;5.45;;
54683;SDS011;40582;53.100;6.686;2023-03-23T04:04:02;11.02;;;5.35;;
54683;SDS011;40582;53.100;6.686;2023-03-23T04:06:29;12.57;;;4.93;;
54683;SDS011;40582;53.100;6.686;2023-03-23T04:08:56;8.95;;;5.55;;
54683;SDS011;40582;53.100;6.686;2023-03-23T04:11:23;7.85;;;5.47;;
54683;SDS011;40582;53.100;6.686;2023-03-23T04:13:50;14.63;;;5.60;;
54683;SDS011;40582;53.100;6.686;2023-03-23T04:16:16;12.55;;;5.32;;
54683;SDS011;40582;53.100;6.686;2023-03-23T04:18:42;9.60;;;5.38;;
54683;SDS011;40582;53.100;6.686;2023-03-23T04:21:08;9.77;;;5.18;;
54683;SDS011;40582;53.100;6.686;2023-03-23T04:23:35;14.20;;;5.32;;
54683;SDS011;40582;53.100;6.686;2023-03-23T04:26:02;12.57;;;5.35;;
54683;SDS011;40582;53.100;6.686;2023-03-23T04:28:28;10.85;;;5.53;;
54683;SDS011;40582;53.100;6.686;2023-03-23T04:30:54;9.43;;;5.40;;
54683;SDS011;40582;53.100;6.686;2023-03-23T04:33:23;9.63;;;5.18;;
54683;SDS011;40582;53.100;6.686;2023-03-23T04:35:54;10.20;;;5.32;;
54683;SDS011;40582;53.100;6.686;2023-03-23T04:38:22;12.90;;;5.10;;
54683;SDS011;40582;53.100;6.686;2023-03-23T04:40:50;15.13;;;6.15;;
54683;SDS011;40582;53.100;6.686;2023-03-23T04:43:17;12.27;;;5.82;;
54683;SDS011;40582;53.100;6.686;2023-03-23T04:45:46;10.68;;;6.00;;
54683;SDS011;40582;53.100;6.686;2023-03-23T04:48:16;16.13;;;6.28;;
54683;SDS011;40582;53.100;6.686;2023-03-23T04:50:42;12.52;;;6.78;;
54683;SDS011;40582;53.100;6.686;2023-03-23T04:53:08;13.48;;;6.45;;
54683;SDS011;40582;53.100;6.686;2023-03-23T04:55:35;18.27;;;5.53;;
54683;SDS011;40582;53.100;6.686;2023-03-23T04:58:05;18.60;;;5.63;;
54683;SDS011;40582;53.100;6.686;2023-03-23T05:00:31;12.10;;;5.07;;
54683;SDS011;40582;53.100;6.686;2023-03-23T05:02:58;9.20;;;5.05;;
54683;SDS011;40582;53.100;6.686;2023-03-23T05:05:23;10.43;;;4.40;;
54683;SDS011;40582;53.100;6.686;2023-03-23T05:07:50;10.35;;;4.00;;
54683;SDS011;40582;53.100;6.686;2023-03-23T05:10:16;8.10;;;3.63;;
54683;SDS011;40582;53.100;6.686;2023-03-23T05:12:43;10.90;;;3.40;;
54683;SDS011;40582;53.100;6.686;2023-03-23T05:15:09;13.15;;;3.53;;
54683;SDS011;40582;53.100;6.686;2023-03-23T05:17:36;12.25;;;3.13;;
54683;SDS011;40582;53.100;6.686;2023-03-23T05:20:03;11.40;;;3.38;;
54683;SDS011;40582;53.100;6.686;2023-03-23T05:22:33;11.45;;;3.00;;
54683;SDS011;40582;53.100;6.686;2023-03-23T05:24:59;13.48;;;3.40;;
54683;SDS011;40582;53.100;6.686;2023-03-23T05:27:28;15.60;;;3.38;;
54683;SDS011;40582;53.100;6.686;2023-03-23T05:29:58;15.23;;;3.70;;
54683;SDS011;40582;53.100;6.686;2023-03-23T05:32:25;13.15;;;3.70;;
54683;SDS011;40582;53.100;6.686;2023-03-23T05:34:55;15.85;;;3.42;;
54683;SDS011;40582;53.100;6.686;2023-03-23T05:37:21;12.25;;;3.55;;
54683;SDS011;40582;53.100;6.686;2023-03-23T05:39:47;13.52;;;3.33;;
54683;SDS011;40582;53.100;6.686;2023-03-23T05:42:13;13.23;;;2.83;;
54683;SDS011;40582;53.100;6.686;2023-03-23T05:44:39;12.23;;;3.20;;
54683;SDS011;40582;53.100;6.686;2023-03-23T05:47:05;12.63;;;3.25;;
54683;SDS011;40582;53.100;6.686;2023-03-23T05:49:30;23.45;;;3.70;;
54683;SDS011;40582;53.100;6.686;2023-03-23T05:51:56;15.18;;;3.40;;
54683;SDS011;40582;53.100;6.686;2023-03-23T05:54:22;25.88;;;3.80;;
54683;SDS011;40582;53.100;6.686;2023-03-23T05:56:48;20.65;;;3.95;;
54683;SDS011;40582;53.100;6.686;2023-03-23T05:59:14;17.25;;;3.40;;
54683;SDS011;40582;53.100;6.686;2023-03-23T06:01:40;20.95;;;4.15;;
54683;SDS011;40582;53.100;6.686;2023-03-23T06:04:05;18.05;;;4.57;;
54683;SDS011;40582;53.100;6.686;2023-03-23T06:06:31;22.88;;;4.10;;
54683;SDS011;40582;53.100;6.686;2023-03-23T06:08:57;21.60;;;4.47;;
54683;SDS011;40582;53.100;6.686;2023-03-23T06:11:24;22.45;;;4.07;;
54683;SDS011;40582;53.100;6.686;2023-03-23T06:13:51;20.85;;;4.28;;
54683;SDS011;40582;53.100;6.686;2023-03-23T06:16:17;27.17;;;4.55;;
54683;SDS011;40582;53.100;6.686;2023-03-23T06:18:44;23.38;;;4.32;;
54683;SDS011;40582;53.100;6.686;2023-03-23T06:21:10;22.25;;;3.75;;
54683;SDS011;40582;53.100;6.686;2023-03-23T06:23:36;18.58;;;4.07;;
54683;SDS011;40582;53.100;6.686;2023-03-23T06:26:04;21.52;;;3.95;;
54683;SDS011;40582;53.100;6.686;2023-03-23T06:28:31;24.00;;;5.10;;
54683;SDS011;40582;53.100;6.686;2023-03-23T06:30:59;25.02;;;4.25;;
54683;SDS011;40582;53.100;6.686;2023-03-23T06:33:26;23.13;;;4.85;;
54683;SDS011;40582;53.100;6.686;2023-03-23T06:35:52;23.63;;;4.88;;
54683;SDS011;40582;53.100;6.686;2023-03-23T06:38:19;30.23;;;4.68;;
54683;SDS011;40582;53.100;6.686;2023-03-23T06:40:44;20.02;;;4.28;;
54683;SDS011;40582;53.100;6.686;2023-03-23T06:43:12;24.52;;;4.90;;
54683;SDS011;40582;53.100;6.686;2023-03-23T06:45:38;27.90;;;5.65;;
54683;SDS011;40582;53.100;6.686;2023-03-23T06:48:04;23.05;;;4.78;;
54683;SDS011;40582;53.100;6.686;2023-03-23T06:50:30;25.63;;;4.78;;
54683;SDS011;40582;53.100;6.686;2023-03-23T06:52:56;22.05;;;4.63;;
54683;SDS011;40582;53.100;6.686;2023-03-23T06:55:22;23.00;;;4.35;;
54683;SDS011;40582;53.100;6.686;2023-03-23T06:57:47;25.38;;;5.13;;
54683;SDS011;40582;53.100;6.686;2023-03-23T07:00:13;20.98;;;4.63;;
54683;SDS011;40582;53.100;6.686;2023-03-23T07:02:40;32.40;;;4.93;;
54683;SDS011;40582;53.100;6.686;2023-03-23T07:05:06;21.90;;;4.63;;
54683;SDS011;40582;53.100;6.686;2023-03-23T07:07:34;21.45;;;4.63;;
54683;SDS011;40582;53.100;6.686;2023-03-23T07:10:01;26.40;;;5.05;;
54683;SDS011;40582;53.100;6.686;2023-03-23T07:12:27;31.17;;;4.68;;
54683;SDS011;40582;53.100;6.686;2023-03-23T07:14:54;27.27;;;6.07;;
54683;SDS011;40582;53.100;6.686;2023-03-23T07:17:20;27.40;;;5.35;;
54683;SDS011;40582;53.100;6.686;2023-03-23T07:19:45;22.05;;;5.28;;
54683;SDS011;40582;53.100;6.686;2023-03-23T07:22:11;28.08;;;5.20;;
54683;SDS011;40582;53.100;6.686;2023-03-23T07:24:37;34.03;;;6.10;;
54683;SDS011;40582;53.100;6.686;2023-03-23T07:27:03;28.25;;;5.13;;
54683;SDS011;40582;53.100;6.686;2023-03-23T07:29:28;36.15;;;6.15;;
54683;SDS011;40582;53.100;6.686;2023-03-23T07:31:54;30.48;;;6.13;;
54683;SDS011;40582;53.100;6.686;2023-03-23T07:34:21;33.00;;;6.55;;
54683;SDS011;40582;53.100;6.686;2023-03-23T07:36:47;30.30;;;5.65;;
54683;SDS011;40582;53.100;6.686;2023-03-23T07:39:13;32.38;;;5.70;;
54683;SDS011;40582;53.100;6.686;2023-03-23T07:41:39;29.95;;;5.80;;
54683;SDS011;40582;53.100;6.686;2023-03-23T07:44:04;34.72;;;6.65;;
54683;SDS011;40582;53.100;6.686;2023-03-23T07:46:31;31.35;;;5.68;;
54683;SDS011;40582;53.100;6.686;2023-03-23T07:48:57;39.35;;;7.03;;
54683;SDS011;40582;53.100;6.686;2023-03-23T07:51:24;24.48;;;5.03;;
54683;SDS011;40582;53.100;6.686;2023-03-23T07:53:50;32.85;;;6.07;;
54683;SDS011;40582;53.100;6.686;2023-03-23T07:56:16;29.08;;;5.57;;
54683;SDS011;40582;53.100;6.686;2023-03-23T07:58:45;42.45;;;7.15;;
54683;SDS011;40582;53.100;6.686;2023-03-23T08:01:11;28.13;;;5.55;;
54683;SDS011;40582;53.100;6.686;2023-03-23T08:03:38;37.75;;;7.10;;
54683;SDS011;40582;53.100;6.686;2023-03-23T08:06:04;32.38;;;5.25;;
54683;SDS011;40582;53.100;6.686;2023-03-23T08:08:30;33.97;;;6.47;;
54683;SDS011;40582;53.100;6.686;2023-03-23T08:10:57;27.50;;;5.75;;
54683;SDS011;40582;53.100;6.686;2023-03-23T08:13:22;35.47;;;6.45;;
54683;SDS011;40582;53.100;6.686;2023-03-23T08:15:49;44.97;;;7.20;;
54683;SDS011;40582;53.100;6.686;2023-03-23T08:18:16;36.92;;;6.32;;
54683;SDS011;40582;53.100;6.686;2023-03-23T08:20:42;34.45;;;6.38;;
54683;SDS011;40582;53.100;6.686;2023-03-23T08:23:09;29.88;;;6.10;;
54683;SDS011;40582;53.100;6.686;2023-03-23T08:25:36;39.70;;;6.10;;
54683;SDS011;40582;53.100;6.686;2023-03-23T08:28:02;35.38;;;6.57;;
54683;SDS011;40582;53.100;6.686;2023-03-23T08:30:28;25.77;;;6.15;;
54683;SDS011;40582;53.100;6.686;2023-03-23T08:32:58;34.30;;;5.50;;
54683;SDS011;40582;53.100;6.686;2023-03-23T08:35:26;41.22;;;6.38;;
54683;SDS011;40582;53.100;6.686;2023-03-23T08:37:52;30.38;;;5.75;;
54683;SDS011;40582;53.100;6.686;2023-03-23T08:40:20;31.42;;;6.13;;
54683;SDS011;40582;53.100;6.686;2023-03-23T08:42:47;29.63;;;6.30;;
54683;SDS011;40582;53.100;6.686;2023-03-23T08:45:15;35.00;;;6.85;;
54683;SDS011;40582;53.100;6.686;2023-03-23T08:47:43;42.22;;;7.07;;
54683;SDS011;40582;53.100;6.686;2023-03-23T08:50:13;33.17;;;6.32;;
54683;SDS011;40582;53.100;6.686;2023-03-23T08:52:40;40.53;;;7.15;;
54683;SDS011;40582;53.100;6.686;2023-03-23T08:55:08;39.65;;;6.93;;
54683;SDS011;40582;53.100;6.686;2023-03-23T08:57:34;31.73;;;6.00;;
54683;SDS011;40582;53.100;6.686;2023-03-23T09:00:02;34.17;;;6.45;;
54683;SDS011;40582;53.100;6.686;2023-03-23T09:02:38;45.10;;;7.90;;
54683;SDS011;40582;53.100;6.686;2023-03-23T09:05:05;38.08;;;7.03;;
54683;SDS011;40582;53.100;6.686;2023-03-23T09:07:32;52.95;;;7.72;;
54683;SDS011;40582;53.100;6.686;2023-03-23T09:09:57;35.17;;;7.18;;
54683;SDS011;40582;53.100;6.686;2023-03-23T09:12:23;34.35;;;7.40;;
54683;SDS011;40582;53.100;6.686;2023-03-23T09:14:49;32.40;;;6.50;;
54683;SDS011;40582;53.100;6.686;2023-03-23T09:17:14;43.35;;;6.57;;
54683;SDS011;40582;53.100;6.686;2023-03-23T09:19:40;38.65;;;6.57;;
54683;SDS011;40582;53.100;6.686;2023-03-23T09:22:07;40.38;;;7.38;;
54683;SDS011;40582;53.100;6.686;2023-03-23T09:24:33;35.20;;;6.72;;
54683;SDS011;40582;53.100;6.686;2023-03-23T09:26:59;41.60;;;7.70;;
54683;SDS011;40582;53.100;6.686;2023-03-23T09:29:26;43.25;;;7.72;;
54683;SDS011;40582;53.100;6.686;2023-03-23T09:31:52;33.22;;;6.82;;
54683;SDS011;40582;53.100;6.686;2023-03-23T09:34:18;29.65;;;6.82;;
54683;SDS011;40582;53.100;6.686;2023-03-23T09:36:44;43.78;;;7.53;;
54683;SDS011;40582;53.100;6.686;2023-03-23T09:39:11;37.42;;;7.45;;
54683;SDS011;40582;53.100;6.686;2023-03-23T09:44:48;33.83;;;6.43;;
54683;SDS011;40582;53.100;6.686;2023-03-23T09:49:59;39.47;;;7.28;;
54683;SDS011;40582;53.100;6.686;2023-03-23T09:52:35;36.63;;;6.97;;
54683;SDS011;40582;53.100;6.686;2023-03-23T09:55:16;37.58;;;7.25;;
54683;SDS011;40582;53.100;6.686;2023-03-23T10:00:36;30.38;;;7.13;;
54683;SDS011;40582;53.100;6.686;2023-03-23T10:03:13;33.42;;;6.70;;
54683;SDS011;40582;53.100;6.686;2023-03-23T10:05:51;37.80;;;6.22;;
54683;SDS011;40582;53.100;6.686;2023-03-23T10:11:07;26.75;;;6.32;;
54683;SDS011;40582;53.100;6.686;2023-03-23T10:16:27;35.40;;;6.43;;
54683;SDS011;40582;53.100;6.686;2023-03-23T10:21:41;31.20;;;6.00;;
54683;SDS011;40582;53.100;6.686;2023-03-23T10:24:14;35.35;;;6.88;;
54683;SDS011;40582;53.100;6.686;2023-03-23T10:29:08;30.90;;;5.75;;
54683;SDS011;40582;53.100;6.686;2023-03-23T10:31:46;29.02;;;6.25;;
54683;SDS011;40582;53.100;6.686;2023-03-23T10:37:15;31.20;;;6.47;;
54683;SDS011;40582;53.100;6.686;2023-03-23T10:45:11;28.70;;;5.78;;
54683;SDS011;40582;53.100;6.686;2023-03-23T10:47:39;27.08;;;6.47;;
54683;SDS011;40582;53.100;6.686;2023-03-23T10:50:12;30.80;;;6.47;;
54683;SDS011;40582;53.100;6.686;2023-03-23T10:52:43;21.42;;;5.82;;
54683;SDS011;40582;53.100;6.686;2023-03-23T10:55:17;28.83;;;6.80;;
54683;SDS011;40582;53.100;6.686;2023-03-23T10:57:45;33.92;;;5.28;;
54683;SDS011;40582;53.100;6.686;2023-03-23T11:00:31;27.15;;;5.57;;
54683;SDS011;40582;53.100;6.686;2023-03-23T11:05:41;25.90;;;5.00;;
54683;SDS011;40582;53.100;6.686;2023-03-23T11:08:11;24.98;;;5.32;;
54683;SDS011;40582;53.100;6.686;2023-03-23T11:13:55;26.15;;;5.18;;
54683;SDS011;40582;53.100;6.686;2023-03-23T11:16:43;22.50;;;4.53;;
54683;SDS011;40582;53.100;6.686;2023-03-23T11:19:15;18.20;;;3.88;;
54683;SDS011;40582;53.100;6.686;2023-03-23T11:21:47;16.15;;;4.00;;
54683;SDS011;40582;53.100;6.686;2023-03-23T11:24:15;17.33;;;3.78;;
54683;SDS011;40582;53.100;6.686;2023-03-23T11:26:42;26.83;;;4.97;;
54683;SDS011;40582;53.100;6.686;2023-03-23T11:29:11;18.13;;;3.97;;
54683;SDS011;40582;53.100;6.686;2023-03-23T11:31:46;21.67;;;4.22;;
54683;SDS011;40582;53.100;6.686;2023-03-23T11:34:25;16.40;;;4.60;;
54683;SDS011;40582;53.100;6.686;2023-03-23T11:37:03;20.13;;;4.35;;
54683;SDS011;40582;53.100;6.686;2023-03-23T11:42:22;28.17;;;4.65;;
54683;SDS011;40582;53.100;6.686;2023-03-23T11:45:17;18.50;;;3.80;;
54683;SDS011;40582;53.100;6.686;2023-03-23T11:47:48;18.85;;;4.47;;
54683;SDS011;40582;53.100;6.686;2023-03-23T11:50:23;19.30;;;3.72;;
54683;SDS011;40582;53.100;6.686;2023-03-23T11:55:49;25.65;;;4.35;;
54683;SDS011;40582;53.100;6.686;2023-03-23T11:58:20;25.67;;;4.75;;
54683;SDS011;40582;53.100;6.686;2023-03-23T12:00:57;24.35;;;4.32;;
54683;SDS011;40582;53.100;6.686;2023-03-23T12:06:23;16.10;;;3.80;;
54683;SDS011;40582;53.100;6.686;2023-03-23T12:08:59;17.20;;;3.60;;
54683;SDS011;40582;53.100;6.686;2023-03-23T12:17:33;23.85;;;4.63;;
54683;SDS011;40582;53.100;6.686;2023-03-23T12:25:21;15.07;;;3.83;;
54683;SDS011;40582;53.100;6.686;2023-03-23T12:42:01;19.20;;;4.60;;
54683;SDS011;40582;53.100;6.686;2023-03-23T12:44:46;12.50;;;3.63;;
54683;SDS011;40582;53.100;6.686;2023-03-23T12:47:34;23.55;;;4.00;;
54683;SDS011;40582;53.100;6.686;2023-03-23T12:50:05;14.23;;;3.50;;
54683;SDS011;40582;53.100;6.686;2023-03-23T12:53:03;21.80;;;3.97;;
54683;SDS011;40582;53.100;6.686;2023-03-23T12:58:18;17.98;;;4.57;;
54683;SDS011;40582;53.100;6.686;2023-03-23T13:00:55;15.85;;;4.00;;
54683;SDS011;40582;53.100;6.686;2023-03-23T13:03:53;19.27;;;4.03;;
54683;SDS011;40582;53.100;6.686;2023-03-23T13:09:09;19.90;;;3.95;;
54683;SDS011;40582;53.100;6.686;2023-03-23T13:11:53;20.25;;;4.45;;
54683;SDS011;40582;53.100;6.686;2023-03-23T13:14:29;19.42;;;4.03;;
54683;SDS011;40582;53.100;6.686;2023-03-23T13:22:21;23.98;;;5.07;;
54683;SDS011;40582;53.100;6.686;2023-03-23T13:25:02;24.73;;;4.20;;
54683;SDS011;40582;53.100;6.686;2023-03-23T13:27:34;16.50;;;3.80;;
54683;SDS011;40582;53.100;6.686;2023-03-23T13:30:00;23.27;;;4.68;;
54683;SDS011;40582;53.100;6.686;2023-03-23T13:32:38;19.05;;;4.45;;
54683;SDS011;40582;53.100;6.686;2023-03-23T13:35:11;23.90;;;4.72;;
54683;SDS011;40582;53.100;6.686;2023-03-23T13:37:50;14.60;;;4.18;;
54683;SDS011;40582;53.100;6.686;2023-03-23T13:42:53;19.02;;;3.72;;
54683;SDS011;40582;53.100;6.686;2023-03-23T13:45:22;24.75;;;4.25;;
54683;SDS011;40582;53.100;6.686;2023-03-23T13:50:48;21.10;;;4.32;;
54683;SDS011;40582;53.100;6.686;2023-03-23T13:53:44;22.90;;;4.80;;
54683;SDS011;40582;53.100;6.686;2023-03-23T13:56:17;16.58;;;4.07;;
54683;SDS011;40582;53.100;6.686;2023-03-23T13:59:03;24.27;;;5.00;;
54683;SDS011;40582;53.100;6.686;2023-03-23T14:01:35;22.95;;;4.90;;
54683;SDS011;40582;53.100;6.686;2023-03-23T14:04:05;21.52;;;5.20;;
54683;SDS011;40582;53.100;6.686;2023-03-23T14:06:35;21.00;;;4.10;;
54683;SDS011;40582;53.100;6.686;2023-03-23T14:09:44;16.75;;;3.85;;
54683;SDS011;40582;53.100;6.686;2023-03-23T14:14:38;15.82;;;4.00;;
54683;SDS011;40582;53.100;6.686;2023-03-23T14:17:13;21.92;;;4.38;;
54683;SDS011;40582;53.100;6.686;2023-03-23T14:19:46;22.98;;;4.40;;
54683;SDS011;40582;53.100;6.686;2023-03-23T14:22:24;17.30;;;3.88;;
54683;SDS011;40582;53.100;6.686;2023-03-23T14:24:51;18.80;;;4.53;;
54683;SDS011;40582;53.100;6.686;2023-03-23T14:27:22;21.58;;;3.92;;
54683;SDS011;40582;53.100;6.686;2023-03-23T14:30:01;19.63;;;4.68;;
54683;SDS011;40582;53.100;6.686;2023-03-23T14:32:30;19.50;;;4.35;;
54683;SDS011;40582;53.100;6.686;2023-03-23T14:34:57;19.90;;;3.92;;
54683;SDS011;40582;53.100;6.686;2023-03-23T14:37:25;20.08;;;4.57;;
54683;SDS011;40582;53.100;6.686;2023-03-23T14:39:54;17.42;;;4.00;;
54683;SDS011;40582;53.100;6.686;2023-03-23T14:42:29;22.45;;;4.22;;
54683;SDS011;40582;53.100;6.686;2023-03-23T14:44:56;20.95;;;4.15;;
54683;SDS011;40582;53.100;6.686;2023-03-23T14:47:29;14.23;;;4.10;;
54683;SDS011;40582;53.100;6.686;2023-03-23T14:50:02;17.33;;;3.70;;
54683;SDS011;40582;53.100;6.686;2023-03-23T14:52:38;24.25;;;4.22;;
54683;SDS011;40582;53.100;6.686;2023-03-23T14:55:10;20.90;;;4.05;;
54683;SDS011;40582;53.100;6.686;2023-03-23T14:57:42;18.08;;;3.40;;
54683;SDS011;40582;53.100;6.686;2023-03-23T15:00:12;22.80;;;4.63;;
54683;SDS011;40582;53.100;6.686;2023-03-23T15:02:45;19.45;;;4.57;;
54683;SDS011;40582;53.100;6.686;2023-03-23T15:05:15;21.90;;;4.03;;
54683;SDS011;40582;53.100;6.686;2023-03-23T15:07:43;18.23;;;3.95;;
54683;SDS011;40582;53.100;6.686;2023-03-23T15:10:19;23.67;;;3.95;;
54683;SDS011;40582;53.100;6.686;2023-03-23T15:12:46;17.48;;;4.05;;
54683;SDS011;40582;53.100;6.686;2023-03-23T15:15:56;18.17;;;3.60;;
54683;SDS011;40582;53.100;6.686;2023-03-23T15:18:03;14.70;;;3.75;;
54683;SDS011;40582;53.100;6.686;2023-03-23T15:20:30;17.60;;;3.58;;
54683;SDS011;40582;53.100;6.686;2023-03-23T15:23:14;14.93;;;3.45;;
54683;SDS011;40582;53.100;6.686;2023-03-23T15:25:47;12.98;;;3.67;;
54683;SDS011;40582;53.100;6.686;2023-03-23T15:28:17;17.35;;;4.38;;
54683;SDS011;40582;53.100;6.686;2023-03-23T15:30:54;14.18;;;3.40;;
54683;SDS011;40582;53.100;6.686;2023-03-23T15:33:25;13.38;;;2.95;;
54683;SDS011;40582;53.100;6.686;2023-03-23T15:35:53;15.93;;;3.28;;
54683;SDS011;40582;53.100;6.686;2023-03-23T15:38:25;20.75;;;3.50;;
54683;SDS011;40582;53.100;6.686;2023-03-23T15:40:57;16.37;;;4.13;;
54683;SDS011;40582;53.100;6.686;2023-03-23T15:43:28;16.73;;;3.38;;
54683;SDS011;40582;53.100;6.686;2023-03-23T15:48:44;18.75;;;4.43;;
54683;SDS011;40582;53.100;6.686;2023-03-23T15:51:12;13.50;;;3.50;;
54683;SDS011;40582;53.100;6.686;2023-03-23T15:53:38;18.83;;;4.35;;
54683;SDS011;40582;53.100;6.686;2023-03-23T15:56:06;15.75;;;3.50;;
54683;SDS011;40582;53.100;6.686;2023-03-23T15:58:33;16.33;;;3.72;;
54683;SDS011;40582;53.100;6.686;2023-03-23T16:01:02;21.98;;;5.25;;
54683;SDS011;40582;53.100;6.686;2023-03-23T16:03:45;23.30;;;4.80;;
54683;SDS011;40582;53.100;6.686;2023-03-23T16:06:18;23.80;;;4.40;;
54683;SDS011;40582;53.100;6.686;2023-03-23T16:08:45;22.48;;;4.45;;
54683;SDS011;40582;53.100;6.686;2023-03-23T16:11:12;21.05;;;4.25;;
54683;SDS011;40582;53.100;6.686;2023-03-23T16:13:39;18.58;;;3.78;;
54683;SDS011;40582;53.100;6.686;2023-03-23T16:16:06;20.13;;;4.53;;
54683;SDS011;40582;53.100;6.686;2023-03-23T16:18:38;17.23;;;4.32;;
54683;SDS011;40582;53.100;6.686;2023-03-23T16:21:04;21.80;;;4.57;;
54683;SDS011;40582;53.100;6.686;2023-03-23T16:23:30;15.55;;;3.75;;
54683;SDS011;40582;53.100;6.686;2023-03-23T16:25:56;21.02;;;4.65;;
54683;SDS011;40582;53.100;6.686;2023-03-23T16:28:21;16.15;;;3.92;;
54683;SDS011;40582;53.100;6.686;2023-03-23T16:30:47;15.25;;;3.70;;
54683;SDS011;40582;53.100;6.686;2023-03-23T16:33:13;21.33;;;4.60;;
54683;SDS011;40582;53.100;6.686;2023-03-23T16:35:39;21.10;;;3.72;;
54683;SDS011;40582;53.100;6.686;2023-03-23T16:38:05;15.98;;;4.13;;
54683;SDS011;40582;53.100;6.686;2023-03-23T16:40:31;23.55;;;5.22;;